sensor_id;sensor_type;location;lat;lon;timestamp;P1;durP1;ratioP1;P2;durP2;ratioP2
76818;SDS011;65772;51.096;17.006;2023-04-25T00:00:38;3.30;;;1.50;;
76818;SDS011;65772;51.096;17.006;2023-04-25T00:03:08;4.40;;;1.40;;
76818;SDS011;65772;51.096;17.006;2023-04-25T00:05:39;2.60;;;1.20;;
76818;SDS011;65772;51.096;17.006;2023-04-25T00:08:10;3.00;;;1.30;;
76818;SDS011;65772;51.096;17.006;2023-04-25T00:10:41;2.80;;;1.30;;
76818;SDS011;65772;51.096;17.006;2023-04-25T00:13:11;2.60;;;1.30;;
76818;SDS011;65772;51.096;17.006;2023-04-25T00:15:42;4.00;;;1.50;;
76818;SDS011;65772;51.096;17.006;2023-04-25T00:18:15;2.60;;;1.30;;
76818;SDS011;65772;51.096;17.006;2023-04-25T00:20:46;2.80;;;1.30;;
76818;SDS011;65772;51.096;17.006;2023-04-25T00:23:17;4.10;;;1.50;;
76818;SDS011;65772;51.096;17.006;2023-04-25T00:25:48;2.80;;;1.20;;
76818;SDS011;65772;51.096;17.006;2023-04-25T00:28:19;3.90;;;1.30;;
76818;SDS011;65772;51.096;17.006;2023-04-25T00:30:49;2.50;;;1.20;;
76818;SDS011;65772;51.096;17.006;2023-04-25T00:33:20;3.20;;;1.30;;
76818;SDS011;65772;51.096;17.006;2023-04-25T00:35:50;3.10;;;1.40;;
76818;SDS011;65772;51.096;17.006;2023-04-25T00:38:21;2.80;;;1.20;;
76818;SDS011;65772;51.096;17.006;2023-04-25T00:40:52;3.50;;;1.20;;
76818;SDS011;65772;51.096;17.006;2023-04-25T00:43:23;2.60;;;1.20;;
76818;SDS011;65772;51.096;17.006;2023-04-25T00:45:55;2.80;;;1.20;;
76818;SDS011;65772;51.096;17.006;2023-04-25T00:48:28;4.20;;;1.30;;
76818;SDS011;65772;51.096;17.006;2023-04-25T00:50:59;3.10;;;1.50;;
76818;SDS011;65772;51.096;17.006;2023-04-25T00:53:30;3.40;;;1.50;;
76818;SDS011;65772;51.096;17.006;2023-04-25T00:56:01;2.80;;;1.50;;
76818;SDS011;65772;51.096;17.006;2023-04-25T00:58:32;3.40;;;1.40;;
76818;SDS011;65772;51.096;17.006;2023-04-25T01:01:03;3.10;;;1.50;;
76818;SDS011;65772;51.096;17.006;2023-04-25T01:03:35;2.70;;;1.60;;
76818;SDS011;65772;51.096;17.006;2023-04-25T01:06:09;4.90;;;1.50;;
76818;SDS011;65772;51.096;17.006;2023-04-25T01:08:40;5.60;;;1.50;;
76818;SDS011;65772;51.096;17.006;2023-04-25T01:11:11;4.30;;;1.90;;
76818;SDS011;65772;51.096;17.006;2023-04-25T01:13:42;3.90;;;1.90;;
76818;SDS011;65772;51.096;17.006;2023-04-25T01:16:12;4.20;;;1.70;;
76818;SDS011;65772;51.096;17.006;2023-04-25T01:18:43;4.20;;;1.70;;
76818;SDS011;65772;51.096;17.006;2023-04-25T01:21:15;5.70;;;2.20;;
76818;SDS011;65772;51.096;17.006;2023-04-25T01:26:18;6.00;;;1.90;;
76818;SDS011;65772;51.096;17.006;2023-04-25T01:31:19;4.30;;;1.80;;
76818;SDS011;65772;51.096;17.006;2023-04-25T01:33:50;4.80;;;2.00;;
76818;SDS011;65772;51.096;17.006;2023-04-25T01:36:21;5.50;;;2.00;;
76818;SDS011;65772;51.096;17.006;2023-04-25T01:38:52;5.30;;;2.30;;
76818;SDS011;65772;51.096;17.006;2023-04-25T01:41:23;5.80;;;2.50;;
76818;SDS011;65772;51.096;17.006;2023-04-25T01:43:54;4.80;;;2.30;;
76818;SDS011;65772;51.096;17.006;2023-04-25T01:46:25;5.40;;;2.20;;
76818;SDS011;65772;51.096;17.006;2023-04-25T01:48:55;4.80;;;2.50;;
76818;SDS011;65772;51.096;17.006;2023-04-25T01:51:26;4.50;;;2.30;;
76818;SDS011;65772;51.096;17.006;2023-04-25T01:53:57;5.60;;;2.70;;
76818;SDS011;65772;51.096;17.006;2023-04-25T01:59:00;6.20;;;2.60;;
76818;SDS011;65772;51.096;17.006;2023-04-25T02:01:45;5.40;;;2.70;;
76818;SDS011;65772;51.096;17.006;2023-04-25T02:04:21;4.40;;;2.50;;
76818;SDS011;65772;51.096;17.006;2023-04-25T02:06:52;5.70;;;2.60;;
76818;SDS011;65772;51.096;17.006;2023-04-25T02:09:23;7.20;;;2.80;;
76818;SDS011;65772;51.096;17.006;2023-04-25T02:11:56;4.40;;;2.40;;
76818;SDS011;65772;51.096;17.006;2023-04-25T02:15:02;5.80;;;2.40;;
76818;SDS011;65772;51.096;17.006;2023-04-25T02:17:39;5.30;;;2.90;;
76818;SDS011;65772;51.096;17.006;2023-04-25T02:20:12;5.20;;;2.80;;
76818;SDS011;65772;51.096;17.006;2023-04-25T02:22:43;4.70;;;2.80;;
76818;SDS011;65772;51.096;17.006;2023-04-25T02:25:14;6.20;;;2.50;;
76818;SDS011;65772;51.096;17.006;2023-04-25T02:27:44;5.90;;;2.80;;
76818;SDS011;65772;51.096;17.006;2023-04-25T02:30:15;5.30;;;2.70;;
76818;SDS011;65772;51.096;17.006;2023-04-25T02:32:46;6.20;;;2.70;;
76818;SDS011;65772;51.096;17.006;2023-04-25T02:35:16;7.80;;;3.00;;
76818;SDS011;65772;51.096;17.006;2023-04-25T02:37:47;4.70;;;2.80;;
76818;SDS011;65772;51.096;17.006;2023-04-25T02:40:18;5.50;;;2.70;;
76818;SDS011;65772;51.096;17.006;2023-04-25T02:42:48;6.30;;;2.70;;
76818;SDS011;65772;51.096;17.006;2023-04-25T02:45:19;4.30;;;2.40;;
76818;SDS011;65772;51.096;17.006;2023-04-25T02:47:50;4.30;;;2.80;;
76818;SDS011;65772;51.096;17.006;2023-04-25T02:50:20;5.20;;;2.90;;
76818;SDS011;65772;51.096;17.006;2023-04-25T02:52:51;4.00;;;2.30;;
76818;SDS011;65772;51.096;17.006;2023-04-25T02:55:26;5.50;;;2.70;;
76818;SDS011;65772;51.096;17.006;2023-04-25T02:57:56;4.90;;;2.80;;
76818;SDS011;65772;51.096;17.006;2023-04-25T03:00:37;4.80;;;2.60;;
76818;SDS011;65772;51.096;17.006;2023-04-25T03:03:08;4.30;;;2.60;;
76818;SDS011;65772;51.096;17.006;2023-04-25T03:05:39;5.20;;;2.70;;
76818;SDS011;65772;51.096;17.006;2023-04-25T03:08:10;5.90;;;3.00;;
76818;SDS011;65772;51.096;17.006;2023-04-25T03:10:41;6.10;;;3.00;;
76818;SDS011;65772;51.096;17.006;2023-04-25T03:13:12;6.90;;;3.20;;
76818;SDS011;65772;51.096;17.006;2023-04-25T03:15:43;6.00;;;3.30;;
76818;SDS011;65772;51.096;17.006;2023-04-25T03:18:13;7.90;;;2.90;;
76818;SDS011;65772;51.096;17.006;2023-04-25T03:20:44;5.00;;;2.80;;
76818;SDS011;65772;51.096;17.006;2023-04-25T03:23:15;4.60;;;3.10;;
76818;SDS011;65772;51.096;17.006;2023-04-25T03:25:46;5.80;;;2.90;;
76818;SDS011;65772;51.096;17.006;2023-04-25T03:28:16;6.30;;;3.30;;
76818;SDS011;65772;51.096;17.006;2023-04-25T03:30:48;7.20;;;3.10;;
76818;SDS011;65772;51.096;17.006;2023-04-25T03:33:18;4.70;;;2.80;;
76818;SDS011;65772;51.096;17.006;2023-04-25T03:35:49;5.80;;;3.10;;
76818;SDS011;65772;51.096;17.006;2023-04-25T03:38:19;4.60;;;2.70;;
76818;SDS011;65772;51.096;17.006;2023-04-25T03:40:51;5.00;;;2.80;;
76818;SDS011;65772;51.096;17.006;2023-04-25T03:43:37;7.00;;;3.20;;
76818;SDS011;65772;51.096;17.006;2023-04-25T03:46:10;11.40;;;4.90;;
76818;SDS011;65772;51.096;17.006;2023-04-25T03:48:42;6.70;;;3.40;;
76818;SDS011;65772;51.096;17.006;2023-04-25T03:51:18;4.30;;;2.50;;
76818;SDS011;65772;51.096;17.006;2023-04-25T03:53:48;4.50;;;2.70;;
76818;SDS011;65772;51.096;17.006;2023-04-25T03:56:19;6.10;;;3.00;;
76818;SDS011;65772;51.096;17.006;2023-04-25T03:58:56;6.00;;;2.70;;
76818;SDS011;65772;51.096;17.006;2023-04-25T04:01:27;7.80;;;3.20;;
76818;SDS011;65772;51.096;17.006;2023-04-25T04:03:58;6.90;;;3.20;;
76818;SDS011;65772;51.096;17.006;2023-04-25T04:06:29;5.70;;;3.40;;
76818;SDS011;65772;51.096;17.006;2023-04-25T04:09:11;10.70;;;5.00;;
76818;SDS011;65772;51.096;17.006;2023-04-25T04:11:43;5.90;;;3.30;;
76818;SDS011;65772;51.096;17.006;2023-04-25T04:14:13;5.00;;;3.10;;
76818;SDS011;65772;51.096;17.006;2023-04-25T04:16:46;6.30;;;3.20;;
76818;SDS011;65772;51.096;17.006;2023-04-25T04:19:16;8.70;;;3.50;;
76818;SDS011;65772;51.096;17.006;2023-04-25T04:21:53;6.50;;;3.70;;
76818;SDS011;65772;51.096;17.006;2023-04-25T04:24:23;8.00;;;3.50;;
76818;SDS011;65772;51.096;17.006;2023-04-25T04:27:03;5.30;;;3.10;;
76818;SDS011;65772;51.096;17.006;2023-04-25T04:29:40;5.70;;;3.20;;
76818;SDS011;65772;51.096;17.006;2023-04-25T04:32:15;6.40;;;3.90;;
76818;SDS011;65772;51.096;17.006;2023-04-25T04:34:46;6.10;;;3.50;;
76818;SDS011;65772;51.096;17.006;2023-04-25T04:37:18;6.60;;;3.70;;
76818;SDS011;65772;51.096;17.006;2023-04-25T04:39:49;5.80;;;3.20;;
76818;SDS011;65772;51.096;17.006;2023-04-25T04:42:43;6.30;;;3.60;;
76818;SDS011;65772;51.096;17.006;2023-04-25T04:48:29;6.90;;;3.80;;
76818;SDS011;65772;51.096;17.006;2023-04-25T04:51:20;5.60;;;3.40;;
76818;SDS011;65772;51.096;17.006;2023-04-25T04:54:10;5.50;;;3.20;;
76818;SDS011;65772;51.096;17.006;2023-04-25T04:57:04;9.40;;;3.60;;
76818;SDS011;65772;51.096;17.006;2023-04-25T04:59:55;5.60;;;3.20;;
76818;SDS011;65772;51.096;17.006;2023-04-25T05:02:44;5.90;;;3.40;;
76818;SDS011;65772;51.096;17.006;2023-04-25T05:05:30;5.90;;;3.20;;
76818;SDS011;65772;51.096;17.006;2023-04-25T05:08:21;6.70;;;3.50;;
76818;SDS011;65772;51.096;17.006;2023-04-25T05:11:00;6.00;;;3.20;;
76818;SDS011;65772;51.096;17.006;2023-04-25T05:13:55;6.10;;;3.50;;
76818;SDS011;65772;51.096;17.006;2023-04-25T05:16:45;7.40;;;3.70;;
76818;SDS011;65772;51.096;17.006;2023-04-25T05:19:37;6.20;;;3.90;;
76818;SDS011;65772;51.096;17.006;2023-04-25T05:22:25;8.50;;;3.50;;
76818;SDS011;65772;51.096;17.006;2023-04-25T05:25:16;5.80;;;3.30;;
76818;SDS011;65772;51.096;17.006;2023-04-25T05:28:05;7.50;;;3.50;;
76818;SDS011;65772;51.096;17.006;2023-04-25T05:30:43;8.30;;;3.60;;
76818;SDS011;65772;51.096;17.006;2023-04-25T05:33:26;5.70;;;3.50;;
76818;SDS011;65772;51.096;17.006;2023-04-25T05:35:57;5.60;;;3.20;;
76818;SDS011;65772;51.096;17.006;2023-04-25T05:38:28;5.60;;;3.30;;
76818;SDS011;65772;51.096;17.006;2023-04-25T05:41:19;6.70;;;3.20;;
76818;SDS011;65772;51.096;17.006;2023-04-25T05:44:08;7.90;;;3.50;;
76818;SDS011;65772;51.096;17.006;2023-04-25T05:46:47;6.00;;;3.50;;
76818;SDS011;65772;51.096;17.006;2023-04-25T05:49:36;6.80;;;3.30;;
76818;SDS011;65772;51.096;17.006;2023-04-25T05:52:25;6.70;;;3.60;;
76818;SDS011;65772;51.096;17.006;2023-04-25T05:55:11;5.90;;;3.30;;
76818;SDS011;65772;51.096;17.006;2023-04-25T05:57:42;5.30;;;3.40;;
76818;SDS011;65772;51.096;17.006;2023-04-25T06:00:15;6.10;;;3.50;;
76818;SDS011;65772;51.096;17.006;2023-04-25T06:02:48;4.80;;;3.20;;
76818;SDS011;65772;51.096;17.006;2023-04-25T06:05:19;6.20;;;3.40;;
76818;SDS011;65772;51.096;17.006;2023-04-25T06:07:50;6.10;;;3.50;;
76818;SDS011;65772;51.096;17.006;2023-04-25T06:10:21;7.30;;;3.40;;
76818;SDS011;65772;51.096;17.006;2023-04-25T06:12:51;8.70;;;4.00;;
76818;SDS011;65772;51.096;17.006;2023-04-25T06:15:22;5.30;;;3.40;;
76818;SDS011;65772;51.096;17.006;2023-04-25T06:17:55;5.10;;;3.00;;
76818;SDS011;65772;51.096;17.006;2023-04-25T06:20:26;9.10;;;3.20;;
76818;SDS011;65772;51.096;17.006;2023-04-25T06:22:58;7.30;;;3.60;;
76818;SDS011;65772;51.096;17.006;2023-04-25T06:25:39;5.10;;;3.00;;
76818;SDS011;65772;51.096;17.006;2023-04-25T06:28:10;7.10;;;3.90;;
76818;SDS011;65772;51.096;17.006;2023-04-25T06:30:41;6.70;;;3.70;;
76818;SDS011;65772;51.096;17.006;2023-04-25T06:33:14;7.20;;;3.60;;
76818;SDS011;65772;51.096;17.006;2023-04-25T06:35:45;5.80;;;3.30;;
76818;SDS011;65772;51.096;17.006;2023-04-25T06:38:18;6.20;;;3.00;;
76818;SDS011;65772;51.096;17.006;2023-04-25T06:40:51;6.80;;;3.40;;
76818;SDS011;65772;51.096;17.006;2023-04-25T06:43:21;5.50;;;3.20;;
76818;SDS011;65772;51.096;17.006;2023-04-25T06:46:15;4.70;;;2.80;;
76818;SDS011;65772;51.096;17.006;2023-04-25T06:48:47;10.20;;;3.80;;
76818;SDS011;65772;51.096;17.006;2023-04-25T06:51:18;5.40;;;3.10;;
76818;SDS011;65772;51.096;17.006;2023-04-25T06:53:52;8.20;;;3.10;;
76818;SDS011;65772;51.096;17.006;2023-04-25T06:56:28;6.40;;;2.90;;
76818;SDS011;65772;51.096;17.006;2023-04-25T07:01:48;6.40;;;2.70;;
76818;SDS011;65772;51.096;17.006;2023-04-25T07:04:21;5.00;;;2.60;;
76818;SDS011;65772;51.096;17.006;2023-04-25T07:06:55;6.70;;;2.70;;
76818;SDS011;65772;51.096;17.006;2023-04-25T07:09:37;9.30;;;2.40;;
76818;SDS011;65772;51.096;17.006;2023-04-25T07:12:08;5.90;;;2.50;;
76818;SDS011;65772;51.096;17.006;2023-04-25T07:14:38;5.80;;;2.40;;
76818;SDS011;65772;51.096;17.006;2023-04-25T07:17:09;5.60;;;2.20;;
76818;SDS011;65772;51.096;17.006;2023-04-25T07:19:40;5.50;;;2.60;;
76818;SDS011;65772;51.096;17.006;2023-04-25T07:22:11;6.90;;;2.50;;
76818;SDS011;65772;51.096;17.006;2023-04-25T07:24:42;4.30;;;2.10;;
76818;SDS011;65772;51.096;17.006;2023-04-25T07:27:16;6.60;;;2.20;;
76818;SDS011;65772;51.096;17.006;2023-04-25T07:30:08;5.60;;;2.40;;
76818;SDS011;65772;51.096;17.006;2023-04-25T07:35:09;4.90;;;2.20;;
76818;SDS011;65772;51.096;17.006;2023-04-25T07:37:39;5.30;;;2.20;;
76818;SDS011;65772;51.096;17.006;2023-04-25T07:40:15;6.90;;;2.40;;
76818;SDS011;65772;51.096;17.006;2023-04-25T07:42:49;6.30;;;2.60;;
76818;SDS011;65772;51.096;17.006;2023-04-25T07:45:26;6.20;;;2.50;;
76818;SDS011;65772;51.096;17.006;2023-04-25T07:47:57;6.00;;;3.10;;
76818;SDS011;65772;51.096;17.006;2023-04-25T07:50:28;5.70;;;2.80;;
76818;SDS011;65772;51.096;17.006;2023-04-25T07:52:59;5.00;;;2.60;;
76818;SDS011;65772;51.096;17.006;2023-04-25T07:55:34;5.30;;;2.80;;
76818;SDS011;65772;51.096;17.006;2023-04-25T07:58:15;6.90;;;3.50;;
76818;SDS011;65772;51.096;17.006;2023-04-25T08:00:52;6.30;;;3.20;;
76818;SDS011;65772;51.096;17.006;2023-04-25T08:03:41;7.00;;;3.40;;
76818;SDS011;65772;51.096;17.006;2023-04-25T08:06:17;6.40;;;3.20;;
76818;SDS011;65772;51.096;17.006;2023-04-25T08:09:04;5.80;;;3.50;;
76818;SDS011;65772;51.096;17.006;2023-04-25T08:11:38;8.10;;;4.10;;
76818;SDS011;65772;51.096;17.006;2023-04-25T08:14:10;5.80;;;3.60;;
76818;SDS011;65772;51.096;17.006;2023-04-25T08:19:12;7.40;;;4.30;;
76818;SDS011;65772;51.096;17.006;2023-04-25T08:21:43;7.20;;;4.20;;
76818;SDS011;65772;51.096;17.006;2023-04-25T08:24:16;8.90;;;4.70;;
76818;SDS011;65772;51.096;17.006;2023-04-25T08:26:47;7.90;;;4.40;;
76818;SDS011;65772;51.096;17.006;2023-04-25T08:29:18;7.40;;;4.70;;
76818;SDS011;65772;51.096;17.006;2023-04-25T08:31:51;6.10;;;4.30;;
76818;SDS011;65772;51.096;17.006;2023-04-25T08:34:22;9.00;;;4.20;;
76818;SDS011;65772;51.096;17.006;2023-04-25T08:36:53;8.60;;;4.90;;
76818;SDS011;65772;51.096;17.006;2023-04-25T08:39:30;7.30;;;4.80;;
76818;SDS011;65772;51.096;17.006;2023-04-25T08:42:23;8.00;;;4.70;;
76818;SDS011;65772;51.096;17.006;2023-04-25T08:44:55;9.70;;;5.30;;
76818;SDS011;65772;51.096;17.006;2023-04-25T08:47:32;9.10;;;5.50;;
76818;SDS011;65772;51.096;17.006;2023-04-25T08:50:04;9.50;;;5.30;;
76818;SDS011;65772;51.096;17.006;2023-04-25T08:52:37;7.50;;;4.90;;
76818;SDS011;65772;51.096;17.006;2023-04-25T08:55:12;10.30;;;5.20;;
76818;SDS011;65772;51.096;17.006;2023-04-25T09:00:13;7.60;;;4.70;;
76818;SDS011;65772;51.096;17.006;2023-04-25T09:02:46;10.10;;;5.20;;
76818;SDS011;65772;51.096;17.006;2023-04-25T09:05:17;10.60;;;5.90;;
76818;SDS011;65772;51.096;17.006;2023-04-25T09:07:52;10.70;;;5.70;;
76818;SDS011;65772;51.096;17.006;2023-04-25T09:10:24;8.30;;;4.70;;
76818;SDS011;65772;51.096;17.006;2023-04-25T09:13:03;8.40;;;4.90;;
76818;SDS011;65772;51.096;17.006;2023-04-25T09:15:53;7.70;;;4.70;;
76818;SDS011;65772;51.096;17.006;2023-04-25T09:18:38;7.10;;;4.60;;
76818;SDS011;65772;51.096;17.006;2023-04-25T09:21:15;8.00;;;4.90;;
76818;SDS011;65772;51.096;17.006;2023-04-25T09:23:47;8.60;;;4.60;;
76818;SDS011;65772;51.096;17.006;2023-04-25T09:26:20;8.50;;;4.60;;
76818;SDS011;65772;51.096;17.006;2023-04-25T09:28:51;13.60;;;7.60;;
76818;SDS011;65772;51.096;17.006;2023-04-25T09:31:38;6.90;;;4.30;;
76818;SDS011;65772;51.096;17.006;2023-04-25T09:34:09;8.70;;;4.30;;
76818;SDS011;65772;51.096;17.006;2023-04-25T09:36:46;7.70;;;4.20;;
76818;SDS011;65772;51.096;17.006;2023-04-25T09:39:39;13.30;;;4.20;;
76818;SDS011;65772;51.096;17.006;2023-04-25T09:42:14;7.70;;;3.80;;
76818;SDS011;65772;51.096;17.006;2023-04-25T09:47:15;6.20;;;3.50;;
76818;SDS011;65772;51.096;17.006;2023-04-25T09:49:49;7.10;;;3.80;;
76818;SDS011;65772;51.096;17.006;2023-04-25T09:52:22;7.60;;;4.10;;
76818;SDS011;65772;51.096;17.006;2023-04-25T09:55:12;7.60;;;3.80;;
76818;SDS011;65772;51.096;17.006;2023-04-25T09:57:44;9.60;;;4.50;;
76818;SDS011;65772;51.096;17.006;2023-04-25T10:00:20;7.70;;;4.10;;
76818;SDS011;65772;51.096;17.006;2023-04-25T10:02:53;9.00;;;3.90;;
76818;SDS011;65772;51.096;17.006;2023-04-25T10:05:42;7.70;;;4.60;;
76818;SDS011;65772;51.096;17.006;2023-04-25T10:10:44;7.20;;;4.30;;
76818;SDS011;65772;51.096;17.006;2023-04-25T10:13:15;8.40;;;4.40;;
76818;SDS011;65772;51.096;17.006;2023-04-25T10:15:47;8.20;;;4.00;;
76818;SDS011;65772;51.096;17.006;2023-04-25T10:18:19;7.20;;;4.80;;
76818;SDS011;65772;51.096;17.006;2023-04-25T10:20:50;7.30;;;4.90;;
76818;SDS011;65772;51.096;17.006;2023-04-25T10:23:21;8.60;;;5.40;;
76818;SDS011;65772;51.096;17.006;2023-04-25T10:25:52;6.20;;;4.20;;
76818;SDS011;65772;51.096;17.006;2023-04-25T10:28:23;12.00;;;7.30;;
76818;SDS011;65772;51.096;17.006;2023-04-25T10:31:00;8.00;;;3.80;;
76818;SDS011;65772;51.096;17.006;2023-04-25T10:33:33;6.40;;;3.10;;
76818;SDS011;65772;51.096;17.006;2023-04-25T10:36:12;7.40;;;3.10;;
76818;SDS011;65772;51.096;17.006;2023-04-25T10:38:44;6.80;;;4.10;;
76818;SDS011;65772;51.096;17.006;2023-04-25T10:41:14;8.80;;;3.70;;
76818;SDS011;65772;51.096;17.006;2023-04-25T10:43:49;4.70;;;2.90;;
76818;SDS011;65772;51.096;17.006;2023-04-25T10:46:28;7.00;;;3.30;;
76818;SDS011;65772;51.096;17.006;2023-04-25T10:49:04;7.40;;;3.10;;
76818;SDS011;65772;51.096;17.006;2023-04-25T10:51:37;7.60;;;3.10;;
76818;SDS011;65772;51.096;17.006;2023-04-25T10:54:22;4.20;;;2.70;;
76818;SDS011;65772;51.096;17.006;2023-04-25T10:56:54;5.50;;;2.60;;
76818;SDS011;65772;51.096;17.006;2023-04-25T10:59:29;6.10;;;2.90;;
76818;SDS011;65772;51.096;17.006;2023-04-25T11:02:00;5.00;;;2.50;;
76818;SDS011;65772;51.096;17.006;2023-04-25T11:04:42;4.20;;;2.20;;
76818;SDS011;65772;51.096;17.006;2023-04-25T11:07:17;6.30;;;2.80;;
76818;SDS011;65772;51.096;17.006;2023-04-25T11:09:52;6.20;;;2.40;;
76818;SDS011;65772;51.096;17.006;2023-04-25T11:12:24;4.40;;;2.50;;
76818;SDS011;65772;51.096;17.006;2023-04-25T11:14:59;5.60;;;2.50;;
76818;SDS011;65772;51.096;17.006;2023-04-25T11:17:31;4.40;;;2.30;;
76818;SDS011;65772;51.096;17.006;2023-04-25T11:20:04;3.80;;;2.20;;
76818;SDS011;65772;51.096;17.006;2023-04-25T11:22:39;4.00;;;1.70;;
76818;SDS011;65772;51.096;17.006;2023-04-25T11:25:11;3.70;;;1.80;;
76818;SDS011;65772;51.096;17.006;2023-04-25T11:27:52;5.20;;;2.10;;
76818;SDS011;65772;51.096;17.006;2023-04-25T11:30:25;4.70;;;2.10;;
76818;SDS011;65772;51.096;17.006;2023-04-25T11:32:56;5.70;;;2.00;;
76818;SDS011;65772;51.096;17.006;2023-04-25T11:35:27;6.70;;;2.00;;
76818;SDS011;65772;51.096;17.006;2023-04-25T11:37:57;6.10;;;1.80;;
76818;SDS011;65772;51.096;17.006;2023-04-25T11:40:28;6.50;;;2.20;;
76818;SDS011;65772;51.096;17.006;2023-04-25T11:45:29;4.10;;;1.90;;
76818;SDS011;65772;51.096;17.006;2023-04-25T11:48:00;4.50;;;1.70;;
76818;SDS011;65772;51.096;17.006;2023-04-25T11:50:31;3.10;;;1.70;;
76818;SDS011;65772;51.096;17.006;2023-04-25T11:53:02;3.90;;;1.70;;
76818;SDS011;65772;51.096;17.006;2023-04-25T11:55:33;4.60;;;1.80;;
76818;SDS011;65772;51.096;17.006;2023-04-25T11:58:05;3.90;;;1.70;;
76818;SDS011;65772;51.096;17.006;2023-04-25T12:00:36;5.20;;;1.90;;
76818;SDS011;65772;51.096;17.006;2023-04-25T12:03:17;5.50;;;1.60;;
76818;SDS011;65772;51.096;17.006;2023-04-25T12:05:51;3.70;;;1.80;;
76818;SDS011;65772;51.096;17.006;2023-04-25T12:08:22;3.80;;;1.60;;
76818;SDS011;65772;51.096;17.006;2023-04-25T12:10:53;3.00;;;1.60;;
76818;SDS011;65772;51.096;17.006;2023-04-25T12:13:24;6.10;;;1.90;;
76818;SDS011;65772;51.096;17.006;2023-04-25T12:15:56;5.00;;;1.80;;
76818;SDS011;65772;51.096;17.006;2023-04-25T12:18:26;5.10;;;1.60;;
76818;SDS011;65772;51.096;17.006;2023-04-25T12:20:58;3.50;;;1.60;;
76818;SDS011;65772;51.096;17.006;2023-04-25T12:23:28;4.30;;;1.90;;
76818;SDS011;65772;51.096;17.006;2023-04-25T12:25:59;4.00;;;1.80;;
76818;SDS011;65772;51.096;17.006;2023-04-25T12:28:31;5.80;;;1.70;;
76818;SDS011;65772;51.096;17.006;2023-04-25T12:31:03;3.90;;;1.90;;
76818;SDS011;65772;51.096;17.006;2023-04-25T12:36:05;3.80;;;1.40;;
76818;SDS011;65772;51.096;17.006;2023-04-25T12:38:39;3.80;;;1.60;;
76818;SDS011;65772;51.096;17.006;2023-04-25T12:41:11;3.80;;;2.30;;
76818;SDS011;65772;51.096;17.006;2023-04-25T12:43:41;4.10;;;1.90;;
76818;SDS011;65772;51.096;17.006;2023-04-25T12:46:12;4.50;;;1.70;;
76818;SDS011;65772;51.096;17.006;2023-04-25T12:48:43;4.80;;;1.70;;
76818;SDS011;65772;51.096;17.006;2023-04-25T12:51:13;3.50;;;1.60;;
76818;SDS011;65772;51.096;17.006;2023-04-25T12:53:44;6.60;;;1.70;;
76818;SDS011;65772;51.096;17.006;2023-04-25T12:56:15;4.30;;;1.50;;
76818;SDS011;65772;51.096;17.006;2023-04-25T12:58:49;2.90;;;1.50;;
76818;SDS011;65772;51.096;17.006;2023-04-25T13:01:20;3.90;;;1.80;;
76818;SDS011;65772;51.096;17.006;2023-04-25T13:03:52;3.40;;;1.50;;
76818;SDS011;65772;51.096;17.006;2023-04-25T13:06:23;3.30;;;1.50;;
76818;SDS011;65772;51.096;17.006;2023-04-25T13:08:54;4.80;;;1.70;;
76818;SDS011;65772;51.096;17.006;2023-04-25T13:11:25;5.60;;;2.00;;
76818;SDS011;65772;51.096;17.006;2023-04-25T13:14:00;3.20;;;1.60;;
76818;SDS011;65772;51.096;17.006;2023-04-25T13:16:31;3.30;;;1.70;;
76818;SDS011;65772;51.096;17.006;2023-04-25T13:19:02;3.70;;;1.70;;
76818;SDS011;65772;51.096;17.006;2023-04-25T13:21:35;3.60;;;1.60;;
76818;SDS011;65772;51.096;17.006;2023-04-25T13:24:06;4.30;;;1.70;;
76818;SDS011;65772;51.096;17.006;2023-04-25T13:26:36;4.60;;;1.80;;
76818;SDS011;65772;51.096;17.006;2023-04-25T13:29:07;4.20;;;1.70;;
76818;SDS011;65772;51.096;17.006;2023-04-25T13:31:37;5.20;;;1.50;;
76818;SDS011;65772;51.096;17.006;2023-04-25T13:34:08;4.60;;;1.90;;
76818;SDS011;65772;51.096;17.006;2023-04-25T13:36:40;4.40;;;1.70;;
76818;SDS011;65772;51.096;17.006;2023-04-25T13:39:10;3.70;;;1.70;;
76818;SDS011;65772;51.096;17.006;2023-04-25T13:41:41;3.10;;;1.50;;
76818;SDS011;65772;51.096;17.006;2023-04-25T13:44:12;3.50;;;1.70;;
76818;SDS011;65772;51.096;17.006;2023-04-25T13:46:43;3.40;;;1.50;;
76818;SDS011;65772;51.096;17.006;2023-04-25T13:49:14;5.80;;;1.50;;
76818;SDS011;65772;51.096;17.006;2023-04-25T13:51:45;3.20;;;1.70;;
76818;SDS011;65772;51.096;17.006;2023-04-25T13:54:16;3.80;;;1.60;;
76818;SDS011;65772;51.096;17.006;2023-04-25T13:56:46;4.80;;;1.60;;
76818;SDS011;65772;51.096;17.006;2023-04-25T13:59:18;4.20;;;1.80;;
76818;SDS011;65772;51.096;17.006;2023-04-25T14:01:48;6.70;;;2.00;;
76818;SDS011;65772;51.096;17.006;2023-04-25T14:04:19;6.70;;;1.80;;
76818;SDS011;65772;51.096;17.006;2023-04-25T14:06:50;3.80;;;1.70;;
76818;SDS011;65772;51.096;17.006;2023-04-25T14:09:20;4.30;;;1.80;;
76818;SDS011;65772;51.096;17.006;2023-04-25T14:11:53;3.00;;;1.50;;
76818;SDS011;65772;51.096;17.006;2023-04-25T14:14:24;3.10;;;1.30;;
76818;SDS011;65772;51.096;17.006;2023-04-25T14:16:54;3.40;;;1.90;;
76818;SDS011;65772;51.096;17.006;2023-04-25T14:19:28;3.80;;;1.70;;
76818;SDS011;65772;51.096;17.006;2023-04-25T14:21:59;3.70;;;1.60;;
76818;SDS011;65772;51.096;17.006;2023-04-25T14:24:29;4.10;;;1.60;;
76818;SDS011;65772;51.096;17.006;2023-04-25T14:27:00;3.10;;;1.40;;
76818;SDS011;65772;51.096;17.006;2023-04-25T14:29:33;4.60;;;1.90;;
76818;SDS011;65772;51.096;17.006;2023-04-25T14:32:04;5.70;;;2.00;;
76818;SDS011;65772;51.096;17.006;2023-04-25T14:34:34;3.90;;;1.80;;
76818;SDS011;65772;51.096;17.006;2023-04-25T14:37:05;7.10;;;2.10;;
76818;SDS011;65772;51.096;17.006;2023-04-25T14:39:36;4.30;;;2.10;;
76818;SDS011;65772;51.096;17.006;2023-04-25T14:42:07;3.80;;;1.70;;
76818;SDS011;65772;51.096;17.006;2023-04-25T14:44:40;8.20;;;1.90;;
76818;SDS011;65772;51.096;17.006;2023-04-25T14:47:10;5.00;;;1.60;;
76818;SDS011;65772;51.096;17.006;2023-04-25T14:49:41;4.90;;;1.70;;
76818;SDS011;65772;51.096;17.006;2023-04-25T14:52:14;5.30;;;1.80;;
76818;SDS011;65772;51.096;17.006;2023-04-25T14:54:45;3.70;;;1.50;;
76818;SDS011;65772;51.096;17.006;2023-04-25T14:57:15;3.30;;;1.60;;
76818;SDS011;65772;51.096;17.006;2023-04-25T14:59:46;2.90;;;1.50;;
76818;SDS011;65772;51.096;17.006;2023-04-25T15:02:17;3.30;;;1.80;;
76818;SDS011;65772;51.096;17.006;2023-04-25T15:04:47;6.50;;;2.60;;
76818;SDS011;65772;51.096;17.006;2023-04-25T15:07:18;5.60;;;2.00;;
76818;SDS011;65772;51.096;17.006;2023-04-25T15:09:49;5.10;;;1.80;;
76818;SDS011;65772;51.096;17.006;2023-04-25T15:12:21;4.30;;;1.80;;
76818;SDS011;65772;51.096;17.006;2023-04-25T15:14:57;3.30;;;1.60;;
76818;SDS011;65772;51.096;17.006;2023-04-25T15:17:29;3.40;;;1.60;;
76818;SDS011;65772;51.096;17.006;2023-04-25T15:20:00;3.90;;;1.60;;
76818;SDS011;65772;51.096;17.006;2023-04-25T15:22:33;3.50;;;1.50;;
76818;SDS011;65772;51.096;17.006;2023-04-25T15:25:05;6.90;;;1.70;;
76818;SDS011;65772;51.096;17.006;2023-04-25T15:27:36;4.90;;;1.90;;
76818;SDS011;65772;51.096;17.006;2023-04-25T15:30:09;4.00;;;1.70;;
76818;SDS011;65772;51.096;17.006;2023-04-25T15:32:43;4.80;;;1.90;;
76818;SDS011;65772;51.096;17.006;2023-04-25T15:35:14;6.30;;;2.20;;
76818;SDS011;65772;51.096;17.006;2023-04-25T15:37:45;4.30;;;1.90;;
76818;SDS011;65772;51.096;17.006;2023-04-25T15:40:15;5.70;;;2.10;;
76818;SDS011;65772;51.096;17.006;2023-04-25T15:42:46;4.20;;;1.90;;